Time;durP1;ratioP1;P1;durP2;ratioP2;P2;SDS_P1;SDS_P2;PMS_P1;PMS_P2;Temp;Humidity;BMP_temperature;BMP_pressure;BME280_temperature;BME280_humidity;BME280_pressure;Samples;Min_cycle;Max_cycle;Signal;HPM_P1;HPM_P2
2023/06/06 00:01:36;;;;;;;9.63;3.67;;;18.80;73.30;;;;;;5124929;27;45586;-70
2023/06/06 00:04:03;;;;;;;7.38;3.15;;;18.80;73.60;;;;;;5117204;27;45363;-70
2023/06/06 00:06:33;;;;;;;8.68;3.67;;;18.80;73.30;;;;;;5124311;27;45264;-70
2023/06/06 00:09:00;;;;;;;6.38;3.25;;;18.80;74.00;;;;;;5118161;27;45453;-70
2023/06/06 00:11:28;;;;;;;7.47;3.80;;;18.80;73.70;;;;;;5125901;27;46411;-70
2023/06/06 00:13:56;;;;;;;7.25;3.78;;;18.80;73.80;;;;;;5121520;27;46033;-70
2023/06/06 00:16:23;;;;;;;11.32;4.10;;;18.80;73.80;;;;;;5124921;27;45596;-71
2023/06/06 00:18:52;;;;;;;9.77;4.20;;;18.70;74.80;;;;;;5122520;27;45510;-72
2023/06/06 00:21:21;;;;;;;7.97;4.10;;;18.60;75.90;;;;;;5112554;27;45284;-71
2023/06/06 00:23:48;;;;;;;10.70;4.07;;;18.50;76.30;;;;;;5121721;27;45415;-70
2023/06/06 00:26:14;;;;;;;11.75;4.47;;;18.50;76.00;;;;;;5119499;27;45590;-70
2023/06/06 00:28:41;;;;;;;11.27;4.28;;;18.50;76.10;;;;;;5122999;27;45245;-71
2023/06/06 00:31:08;;;;;;;12.35;4.78;;;18.50;77.00;;;;;;5125216;27;47214;-70
2023/06/06 00:33:35;;;;;;;12.32;4.40;;;18.40;76.90;;;;;;5123973;27;45434;-71
2023/06/06 00:36:03;;;;;;;10.40;4.53;;;18.40;76.50;;;;;;5110126;27;45335;-70
2023/06/06 00:38:30;;;;;;;7.65;4.40;;;18.40;76.80;;;;;;5123717;27;45518;-71
2023/06/06 00:40:57;;;;;;;8.82;4.65;;;18.40;76.90;;;;;;5123362;27;48456;-70
2023/06/06 00:43:24;;;;;;;11.40;4.20;;;18.40;77.00;;;;;;5116492;27;45377;-70
2023/06/06 00:45:50;;;;;;;10.40;4.50;;;18.30;76.80;;;;;;5125000;27;45566;-70
2023/06/06 00:48:20;;;;;;;10.18;4.60;;;18.30;77.60;;;;;;5119230;27;45533;-70
2023/06/06 00:50:48;;;;;;;12.05;4.53;;;18.30;77.90;;;;;;5121517;27;47243;-70
2023/06/06 00:53:16;;;;;;;9.57;5.05;;;18.30;77.50;;;;;;5118614;27;45413;-71
2023/06/06 00:55:44;;;;;;;12.68;4.90;;;18.20;78.00;;;;;;5124462;27;45433;-71
2023/06/06 00:58:13;;;;;;;7.75;4.63;;;18.20;78.20;;;;;;5123021;27;45602;-70
2023/06/06 01:00:41;;;;;;;9.05;4.32;;;18.20;78.10;;;;;;5124478;27;45436;-70
2023/06/06 01:03:10;;;;;;;11.00;4.75;;;18.20;78.50;;;;;;5116351;27;45527;-70
2023/06/06 01:05:37;;;;;;;8.98;4.50;;;18.20;79.80;;;;;;5123255;27;45438;-70
2023/06/06 01:08:04;;;;;;;12.70;4.93;;;18.10;78.40;;;;;;5118221;27;45240;-71
2023/06/06 01:10:34;;;;;;;10.13;4.78;;;18.20;78.60;;;;;;5111756;27;45497;-71
2023/06/06 01:13:07;;;;;;;7.72;4.20;;;18.10;78.30;;;;;;5118882;27;45643;-72
2023/06/06 01:15:42;;;;;;;9.18;4.22;;;18.20;78.70;;;;;;5123899;27;45487;-70
2023/06/06 01:18:11;;;;;;;11.05;4.47;;;18.10;78.90;;;;;;5123785;27;45477;-70
2023/06/06 01:20:39;;;;;;;10.50;4.60;;;18.00;79.40;;;;;;5107267;27;46373;-70
2023/06/06 01:23:09;;;;;;;9.63;4.00;;;18.10;78.90;;;;;;5118838;27;45494;-71
2023/06/06 01:25:37;;;;;;;14.27;4.70;;;18.10;79.00;;;;;;5110970;27;45398;-70
2023/06/06 01:28:04;;;;;;;10.55;4.85;;;18.10;79.20;;;;;;5124591;27;45263;-71
2023/06/06 01:30:34;;;;;;;10.52;4.93;;;18.00;79.20;;;;;;5124281;27;45408;-70
2023/06/06 01:33:15;;;;;;;9.43;4.18;;;18.10;79.40;;;;;;5124416;27;45375;-70
2023/06/06 01:35:51;;;;;;;7.03;4.35;;;18.00;79.40;;;;;;5121053;27;45460;-71
2023/06/06 01:38:21;;;;;;;10.48;4.55;;;18.00;79.70;;;;;;5119632;27;45404;-70
2023/06/06 01:40:52;;;;;;;7.60;4.40;;;17.90;79.60;;;;;;5113453;27;46042;-70
2023/06/06 01:43:21;;;;;;;9.90;5.03;;;18.00;79.40;;;;;;5119033;27;45940;-70
2023/06/06 01:45:50;;;;;;;10.43;4.57;;;17.90;79.80;;;;;;5121148;27;45307;-70
2023/06/06 01:48:18;;;;;;;8.45;4.15;;;17.90;79.60;;;;;;5118480;27;45576;-69
2023/06/06 01:50:46;;;;;;;10.80;5.20;;;18.00;79.10;;;;;;5119319;27;48439;-70
2023/06/06 01:53:13;;;;;;;9.98;4.63;;;18.00;79.40;;;;;;5118345;27;45283;-70
2023/06/06 01:55:41;;;;;;;10.07;4.47;;;18.00;79.00;;;;;;5121773;27;45364;-70
2023/06/06 01:58:08;;;;;;;12.63;5.03;;;18.00;79.40;;;;;;5116150;27;45508;-70
2023/06/06 02:00:35;;;;;;;8.13;4.70;;;18.10;78.10;;;;;;5114641;27;46474;-70
2023/06/06 02:03:02;;;;;;;8.38;4.65;;;18.10;78.60;;;;;;5122686;27;45540;-70
2023/06/06 02:05:29;;;;;;;7.55;4.60;;;18.10;77.90;;;;;;5121256;27;45339;-70
2023/06/06 02:07:55;;;;;;;6.97;4.50;;;18.10;77.70;;;;;;5125776;27;45537;-72
2023/06/06 02:10:22;;;;;;;10.35;4.78;;;18.20;77.90;;;;;;5116154;27;45315;-71
2023/06/06 02:12:50;;;;;;;11.02;4.15;;;18.20;77.70;;;;;;5118941;27;45443;-70
2023/06/06 02:15:17;;;;;;;11.07;4.40;;;18.20;77.50;;;;;;5114886;27;45285;-70
2023/06/06 02:17:44;;;;;;;10.27;4.05;;;18.20;77.50;;;;;;5123869;27;45193;-71
2023/06/06 02:20:11;;;;;;;7.70;4.32;;;18.00;78.10;;;;;;5117536;27;47557;-70
2023/06/06 02:22:38;;;;;;;11.50;4.70;;;18.10;78.20;;;;;;5120724;27;45929;-70
2023/06/06 02:25:06;;;;;;;10.23;4.45;;;18.00;78.60;;;;;;5114730;27;45464;-70
2023/06/06 02:27:34;;;;;;;9.32;4.63;;;18.00;78.30;;;;;;5122871;27;45366;-70
2023/06/06 02:30:03;;;;;;;6.95;4.38;;;18.00;78.60;;;;;;5123862;27;47256;-70
2023/06/06 02:32:30;;;;;;;5.75;3.70;;;17.90;78.50;;;;;;5113930;27;45364;-70
2023/06/06 02:34:59;;;;;;;7.22;3.97;;;17.90;78.40;;;;;;5122716;27;45393;-70
2023/06/06 02:37:26;;;;;;;9.88;4.25;;;17.90;78.50;;;;;;5122912;27;45391;-70
2023/06/06 02:39:53;;;;;;;8.07;4.57;;;18.00;77.70;;;;;;5119516;27;47220;-70
2023/06/06 02:42:20;;;;;;;11.38;4.93;;;18.00;78.20;;;;;;5118721;27;45438;-71
2023/06/06 02:44:47;;;;;;;18.00;5.15;;;17.90;78.10;;;;;;5115601;27;45270;-70
2023/06/06 02:47:15;;;;;;;6.30;3.97;;;17.90;78.10;;;;;;5122281;27;45217;-70
2023/06/06 02:49:42;;;;;;;10.50;4.43;;;17.90;78.00;;;;;;5121278;27;47434;-70
2023/06/06 02:52:09;;;;;;;8.13;4.35;;;17.80;78.20;;;;;;5115812;27;45639;-70
2023/06/06 02:54:36;;;;;;;8.18;4.50;;;17.90;78.20;;;;;;5111956;27;45373;-70
2023/06/06 02:57:03;;;;;;;10.07;4.50;;;17.80;78.40;;;;;;5118008;27;45547;-70
2023/06/06 02:59:30;;;;;;;8.95;4.43;;;17.80;78.20;;;;;;5123085;27;46344;-70
2023/06/06 03:01:57;;;;;;;10.10;4.60;;;17.90;78.00;;;;;;5121570;27;45410;-70
2023/06/06 03:04:25;;;;;;;13.65;4.88;;;17.90;77.90;;;;;;5121212;27;45321;-70
2023/06/06 03:06:51;;;;;;;8.30;4.95;;;17.80;78.10;;;;;;5117118;27;45536;-70
2023/06/06 03:09:19;;;;;;;9.02;4.88;;;17.80;77.80;;;;;;5114515;27;45360;-70
2023/06/06 03:11:45;;;;;;;8.50;5.40;;;17.80;78.10;;;;;;5120887;27;45381;-71
2023/06/06 03:14:12;;;;;;;7.40;4.70;;;17.70;78.10;;;;;;5121391;27;45391;-70
2023/06/06 03:16:39;;;;;;;10.02;5.10;;;17.70;78.30;;;;;;5114276;27;45389;-70
2023/06/06 03:19:07;;;;;;;13.98;5.10;;;17.80;78.40;;;;;;5122923;27;47346;-70
2023/06/06 03:21:36;;;;;;;8.20;4.90;;;17.70;78.60;;;;;;5115037;27;45295;-70
2023/06/06 03:24:03;;;;;;;10.18;5.20;;;17.70;78.50;;;;;;5119332;27;45455;-72
2023/06/06 03:26:31;;;;;;;8.57;4.88;;;17.60;78.60;;;;;;5117469;27;45407;-70
2023/06/06 03:28:58;;;;;;;10.60;5.03;;;17.70;78.40;;;;;;5111736;27;45491;-70
2023/06/06 03:31:25;;;;;;;7.82;4.72;;;17.60;78.40;;;;;;5116432;27;45430;-70
2023/06/06 03:33:52;;;;;;;8.13;4.68;;;17.60;78.80;;;;;;5117800;27;45561;-70
2023/06/06 03:36:19;;;;;;;16.05;5.03;;;17.60;78.70;;;;;;5121840;27;45285;-69
2023/06/06 03:38:48;;;;;;;10.65;4.90;;;17.70;78.30;;;;;;5125261;27;47524;-70
2023/06/06 03:41:15;;;;;;;7.72;4.47;;;17.70;78.40;;;;;;5125148;27;45327;-70
2023/06/06 03:43:42;;;;;;;9.95;4.70;;;17.60;78.50;;;;;;5110380;27;45305;-69
2023/06/06 03:46:08;;;;;;;10.30;4.75;;;17.60;78.30;;;;;;5117597;27;45528;-70
2023/06/06 03:48:35;;;;;;;8.80;5.10;;;17.60;78.40;;;;;;5126318;27;45501;-71
2023/06/06 03:51:02;;;;;;;13.15;5.43;;;17.50;78.80;;;;;;5118934;27;45590;-70
2023/06/06 03:53:29;;;;;;;10.60;5.45;;;17.40;79.10;;;;;;5119052;27;45424;-70
2023/06/06 03:55:59;;;;;;;9.40;4.95;;;17.50;79.10;;;;;;5122643;27;45309;-71
2023/06/06 03:58:25;;;;;;;7.85;4.90;;;17.50;78.80;;;;;;5114313;27;46289;-70
2023/06/06 04:00:52;;;;;;;9.35;4.70;;;17.60;78.40;;;;;;5115460;27;45464;-70
2023/06/06 04:03:19;;;;;;;9.88;4.93;;;17.60;78.40;;;;;;5120362;27;45305;-70
2023/06/06 04:05:48;;;;;;;9.48;4.45;;;17.60;78.30;;;;;;5122396;27;45328;-71
2023/06/06 04:08:15;;;;;;;10.38;5.35;;;17.60;78.50;;;;;;5119708;27;47842;-72
2023/06/06 04:10:42;;;;;;;10.00;4.78;;;17.70;78.10;;;;;;5125897;27;46316;-72
2023/06/06 04:13:10;;;;;;;8.77;4.63;;;17.60;78.40;;;;;;5121919;27;45223;-72
2023/06/06 04:15:37;;;;;;;7.93;4.93;;;17.50;79.10;;;;;;5113173;27;45500;-72
2023/06/06 04:18:04;;;;;;;13.95;4.75;;;17.50;79.10;;;;;;5125530;27;47516;-71
2023/06/06 04:20:32;;;;;;;9.43;5.10;;;17.60;78.00;;;;;;5125164;27;45565;-72
2023/06/06 04:23:00;;;;;;;8.90;4.32;;;17.60;76.20;;;;;;5108960;27;45444;-70
2023/06/06 04:25:27;;;;;;;8.85;4.72;;;17.80;75.90;;;;;;5110397;27;45408;-71
2023/06/06 04:27:55;;;;;;;10.30;4.68;;;17.90;73.60;;;;;;5123424;27;47513;-70
2023/06/06 04:30:23;;;;;;;8.65;4.40;;;18.00;74.40;;;;;;5125786;27;45410;-70
2023/06/06 04:32:50;;;;;;;11.10;5.00;;;18.00;73.30;;;;;;5123546;27;45497;-70
2023/06/06 04:35:18;;;;;;;12.82;4.68;;;18.10;73.60;;;;;;5117719;27;45566;-71
2023/06/06 04:37:47;;;;;;;9.68;4.93;;;18.10;74.40;;;;;;5110232;27;48657;-70
2023/06/06 04:40:15;;;;;;;6.82;4.53;;;18.00;74.50;;;;;;5112236;27;45310;-72
2023/06/06 04:42:42;;;;;;;7.45;4.63;;;18.00;73.60;;;;;;5121414;27;45225;-71
2023/06/06 04:45:10;;;;;;;13.45;5.70;;;18.10;74.50;;;;;;5121154;27;45275;-73
2023/06/06 04:47:40;;;;;;;12.45;5.07;;;18.10;75.40;;;;;;5111021;27;46514;-72
2023/06/06 04:50:08;;;;;;;11.77;5.10;;;17.90;76.40;;;;;;5117248;27;46704;-73
2023/06/06 04:52:35;;;;;;;10.65;5.18;;;17.90;77.40;;;;;;5114654;27;45320;-72
2023/06/06 04:55:03;;;;;;;11.20;5.20;;;17.90;77.50;;;;;;5125061;27;45186;-73
2023/06/06 04:57:30;;;;;;;10.68;5.18;;;17.80;78.00;;;;;;5122894;27;46721;-71
2023/06/06 04:59:57;;;;;;;9.13;4.78;;;17.80;77.70;;;;;;5118574;27;45403;-71
2023/06/06 05:02:28;;;;;;;8.38;4.75;;;17.80;77.70;;;;;;5119070;27;45439;-71
2023/06/06 05:04:57;;;;;;;8.77;5.00;;;17.90;76.40;;;;;;5113311;27;45512;-72
2023/06/06 05:07:24;;;;;;;10.80;4.80;;;18.00;76.50;;;;;;5111410;27;46978;-70
2023/06/06 05:09:51;;;;;;;9.77;4.97;;;17.90;76.40;;;;;;5121058;27;45661;-71
2023/06/06 05:12:18;;;;;;;12.05;5.00;;;17.80;77.50;;;;;;5117781;27;45386;-71
2023/06/06 05:14:45;;;;;;;9.02;4.75;;;18.00;76.50;;;;;;5120554;27;45536;-71
2023/06/06 05:17:17;;;;;;;11.45;5.03;;;17.90;77.50;;;;;;5124403;27;47686;-71
2023/06/06 05:19:45;;;;;;;11.63;5.18;;;17.80;78.20;;;;;;5116424;27;45441;-70
2023/06/06 05:22:13;;;;;;;10.32;5.35;;;17.70;78.80;;;;;;5124419;27;45370;-70
2023/06/06 05:24:41;;;;;;;9.05;4.95;;;17.80;78.90;;;;;;5122139;27;45472;-72
2023/06/06 05:27:07;;;;;;;11.57;4.68;;;17.60;79.20;;;;;;5118829;27;47525;-70
2023/06/06 05:29:35;;;;;;;11.38;5.15;;;17.70;79.10;;;;;;5126533;27;45600;-70
2023/06/06 05:32:02;;;;;;;10.70;4.90;;;17.80;78.70;;;;;;5124692;27;45397;-70
2023/06/06 05:34:28;;;;;;;10.35;4.97;;;17.80;78.90;;;;;;5120001;27;45318;-70
2023/06/06 05:36:55;;;;;;;10.68;5.25;;;17.80;78.90;;;;;;5122888;27;47062;-70
2023/06/06 05:39:24;;;;;;;9.43;4.22;;;17.90;78.40;;;;;;5117966;27;45430;-71
2023/06/06 05:41:54;;;;;;;11.25;4.82;;;18.00;77.80;;;;;;5121296;27;45329;-71
2023/06/06 05:44:21;;;;;;;10.25;4.68;;;18.00;78.30;;;;;;5124591;27;45404;-71
2023/06/06 05:46:53;;;;;;;13.98;5.10;;;18.00;78.40;;;;;;5123194;27;45528;-71
2023/06/06 05:49:19;;;;;;;10.38;5.07;;;17.90;78.60;;;;;;5116017;27;45433;-70
2023/06/06 05:51:46;;;;;;;8.70;4.93;;;18.00;78.60;;;;;;5121460;27;45393;-70
2023/06/06 05:54:14;;;;;;;9.48;4.53;;;17.90;78.80;;;;;;5124494;27;45267;-71
2023/06/06 05:56:42;;;;;;;11.95;4.68;;;17.90;78.40;;;;;;5122845;27;46583;-71
2023/06/06 05:59:09;;;;;;;8.38;4.72;;;18.00;78.40;;;;;;5123502;27;45323;-70
2023/06/06 06:01:39;;;;;;;14.63;5.07;;;18.00;78.20;;;;;;5116020;27;45328;-70
2023/06/06 06:04:07;;;;;;;9.70;4.60;;;17.90;78.60;;;;;;5123224;27;45360;-71
2023/06/06 06:06:35;;;;;;;10.15;5.35;;;17.90;78.80;;;;;;5123789;27;45632;-71
2023/06/06 06:09:03;;;;;;;8.43;4.85;;;18.00;78.50;;;;;;5124684;27;45438;-71
2023/06/06 06:11:30;;;;;;;11.15;5.05;;;18.00;78.70;;;;;;5115568;27;45325;-70
2023/06/06 06:13:59;;;;;;;11.00;5.85;;;18.00;78.70;;;;;;5118001;27;45404;-70
2023/06/06 06:16:26;;;;;;;9.35;4.93;;;17.90;79.10;;;;;;5121793;27;48044;-71
2023/06/06 06:18:52;;;;;;;8.88;5.10;;;17.90;79.00;;;;;;5123424;27;45340;-68
2023/06/06 06:21:21;;;;;;;8.73;5.20;;;18.00;78.40;;;;;;5119935;27;45415;-70
2023/06/06 06:23:49;;;;;;;9.75;5.00;;;18.00;78.90;;;;;;5121109;27;45798;-70
2023/06/06 06:26:16;;;;;;;8.45;4.60;;;18.00;78.70;;;;;;5109004;27;45632;-70
2023/06/06 06:28:43;;;;;;;8.25;4.80;;;18.10;78.60;;;;;;5116018;27;45290;-70
2023/06/06 06:31:11;;;;;;;9.80;5.22;;;18.20;78.30;;;;;;5112106;27;45391;-70
2023/06/06 06:33:38;;;;;;;10.60;5.28;;;18.30;78.00;;;;;;5121228;27;45249;-70
2023/06/06 06:36:06;;;;;;;7.05;5.00;;;18.20;78.00;;;;;;5121239;27;46384;-70
2023/06/06 06:38:32;;;;;;;10.07;5.18;;;18.20;78.20;;;;;;5112901;27;45417;-70
2023/06/06 06:40:59;;;;;;;11.55;5.57;;;18.30;78.00;;;;;;5120761;27;45330;-69
2023/06/06 06:43:26;;;;;;;9.80;5.25;;;18.20;77.90;;;;;;5121245;27;45584;-70
2023/06/06 06:45:53;;;;;;;10.15;4.93;;;18.20;78.00;;;;;;5111084;27;46549;-70
2023/06/06 06:48:21;;;;;;;9.65;4.97;;;18.30;77.80;;;;;;5121612;27;45332;-70
2023/06/06 06:50:48;;;;;;;9.13;5.20;;;18.20;77.60;;;;;;5116909;27;45406;-70
2023/06/06 06:53:16;;;;;;;8.73;5.40;;;18.20;78.00;;;;;;5123020;27;45350;-70
2023/06/06 06:55:44;;;;;;;12.07;4.75;;;18.30;78.00;;;;;;5115015;27;47216;-70
2023/06/06 06:58:13;;;;;;;15.55;5.88;;;18.30;77.90;;;;;;5119408;27;45597;-70
2023/06/06 07:00:40;;;;;;;9.43;5.05;;;18.40;77.60;;;;;;5114828;27;45214;-70
2023/06/06 07:03:08;;;;;;;9.88;5.07;;;18.50;77.60;;;;;;5116727;27;45378;-70
2023/06/06 07:05:36;;;;;;;12.15;5.60;;;18.50;77.50;;;;;;5120430;27;45547;-70
2023/06/06 07:08:03;;;;;;;9.10;4.95;;;18.50;76.90;;;;;;5122962;27;45379;-70
2023/06/06 07:10:31;;;;;;;15.85;6.65;;;18.60;77.30;;;;;;5115669;27;45322;-70
2023/06/06 07:12:58;;;;;;;17.80;5.18;;;18.50;77.00;;;;;;5117845;27;45306;-70
2023/06/06 07:15:25;;;;;;;11.23;5.20;;;18.50;77.00;;;;;;5126583;27;47283;-70
2023/06/06 07:17:51;;;;;;;13.73;5.18;;;18.50;77.50;;;;;;5126065;27;45401;-70
2023/06/06 07:20:19;;;;;;;12.80;5.30;;;18.60;77.00;;;;;;5126685;27;45360;-71
2023/06/06 07:22:49;;;;;;;17.40;6.10;;;18.60;77.00;;;;;;5117173;27;45586;-70
2023/06/06 07:25:16;;;;;;;10.85;5.63;;;18.60;77.50;;;;;;5126069;27;48652;-70
2023/06/06 07:27:43;;;;;;;14.75;5.45;;;18.50;77.80;;;;;;5126206;27;45319;-70
2023/06/06 07:30:13;;;;;;;12.38;5.68;;;18.50;77.00;;;;;;5119453;27;45406;-70
2023/06/06 07:32:42;;;;;;;16.40;5.97;;;18.60;77.00;;;;;;5124673;27;45326;-69
2023/06/06 07:35:10;;;;;;;13.68;6.05;;;18.60;77.00;;;;;;5124276;27;47554;-70
2023/06/06 07:37:37;;;;;;;12.10;6.40;;;18.70;77.10;;;;;;5123655;27;45278;-71
2023/06/06 07:40:07;;;;;;;11.13;5.50;;;18.70;77.10;;;;;;5122052;27;45358;-70
2023/06/06 07:42:34;;;;;;;10.20;6.07;;;18.70;77.10;;;;;;5115153;27;45483;-70
2023/06/06 07:45:01;;;;;;;17.27;6.78;;;18.70;77.30;;;;;;5123804;27;47152;-70
2023/06/06 07:47:28;;;;;;;19.30;6.63;;;18.70;78.00;;;;;;5115668;27;45255;-71
2023/06/06 07:49:55;;;;;;;17.02;6.95;;;18.70;77.10;;;;;;5118257;27;45274;-70
2023/06/06 07:52:21;;;;;;;16.60;7.30;;;18.70;77.10;;;;;;5118021;27;45596;-70
2023/06/06 07:54:48;;;;;;;16.75;6.57;;;18.70;77.50;;;;;;5124075;27;45487;-70
2023/06/06 07:57:17;;;;;;;10.18;5.80;;;18.60;77.70;;;;;;5123674;27;45532;-70
2023/06/06 07:59:45;;;;;;;19.02;6.95;;;18.70;77.10;;;;;;5127593;27;45346;-70
2023/06/06 08:02:14;;;;;;;14.40;6.90;;;18.70;77.10;;;;;;5122911;27;45444;-70
2023/06/06 08:04:42;;;;;;;13.27;6.50;;;18.80;77.80;;;;;;5125337;27;47505;-70
2023/06/06 08:07:09;;;;;;;19.30;6.53;;;18.80;77.20;;;;;;5124683;27;45417;-70
2023/06/06 08:09:36;;;;;;;13.65;6.18;;;18.80;77.20;;;;;;5123484;27;45394;-70
2023/06/06 08:12:05;;;;;;;15.18;6.68;;;18.90;76.80;;;;;;5115488;27;45324;-70
2023/06/06 08:14:33;;;;;;;23.40;7.55;;;18.90;77.30;;;;;;5121982;27;47468;-70
2023/06/06 08:17:00;;;;;;;12.77;6.93;;;18.80;77.20;;;;;;5120698;27;45400;-70
2023/06/06 08:19:27;;;;;;;18.98;7.78;;;18.90;76.60;;;;;;5121875;27;45434;-70
2023/06/06 08:21:54;;;;;;;16.33;7.72;;;18.90;76.40;;;;;;5125988;27;45540;-70
2023/06/06 08:24:21;;;;;;;14.68;6.05;;;18.80;77.20;;;;;;5118300;27;46080;-70
2023/06/06 08:26:47;;;;;;;13.85;6.15;;;18.90;76.80;;;;;;5120959;27;45698;-70
2023/06/06 08:29:15;;;;;;;14.80;6.82;;;19.00;76.40;;;;;;5120595;27;45303;-70
2023/06/06 08:31:44;;;;;;;9.82;5.97;;;19.00;75.90;;;;;;5125632;27;45631;-70
2023/06/06 08:34:11;;;;;;;18.58;7.43;;;19.00;75.70;;;;;;5124123;27;48719;-70
2023/06/06 08:36:38;;;;;;;17.35;7.07;;;18.90;76.10;;;;;;5123232;27;45391;-70
2023/06/06 08:39:06;;;;;;;22.20;7.32;;;19.00;76.40;;;;;;5116263;27;45365;-71
2023/06/06 08:41:34;;;;;;;11.95;6.30;;;19.00;76.10;;;;;;5116383;27;45588;-70
2023/06/06 08:44:02;;;;;;;16.58;8.02;;;19.10;76.00;;;;;;5115686;27;47754;-71
2023/06/06 08:46:32;;;;;;;16.75;6.97;;;19.20;75.90;;;;;;5115855;27;45288;-70
2023/06/06 08:49:04;;;;;;;16.38;7.35;;;19.20;75.70;;;;;;5124146;27;45392;-70
2023/06/06 08:51:31;;;;;;;21.50;7.88;;;19.20;75.70;;;;;;5122436;27;45647;-69
2023/06/06 08:54:00;;;;;;;17.60;7.78;;;19.20;76.50;;;;;;5123873;27;45399;-71
2023/06/06 08:56:27;;;;;;;14.20;6.85;;;19.20;75.90;;;;;;5125220;27;45351;-70
2023/06/06 08:58:55;;;;;;;19.13;8.80;;;19.20;75.90;;;;;;5107112;27;45421;-70
2023/06/06 09:01:22;;;;;;;20.75;8.15;;;19.20;75.20;;;;;;5125390;27;45567;-70
2023/06/06 09:03:52;;;;;;;15.63;7.90;;;19.20;76.20;;;;;;5113712;27;47699;-69
2023/06/06 09:06:21;;;;;;;17.02;8.23;;;19.30;75.70;;;;;;5120522;27;45286;-70
2023/06/06 09:08:49;;;;;;;18.52;7.57;;;19.30;75.50;;;;;;5124171;27;45341;-70
2023/06/06 09:11:17;;;;;;;20.13;7.88;;;19.30;75.20;;;;;;5117107;27;45592;-71
2023/06/06 09:13:45;;;;;;;25.38;8.25;;;19.40;75.20;;;;;;5113895;27;47438;-70
2023/06/06 09:16:14;;;;;;;16.27;7.38;;;19.40;75.40;;;;;;5116400;27;46408;-71
2023/06/06 09:18:41;;;;;;;15.93;8.13;;;19.40;74.80;;;;;;5118545;27;45442;-70
2023/06/06 09:21:08;;;;;;;14.60;7.68;;;19.40;75.40;;;;;;5122801;27;45529;-71
2023/06/06 09:23:36;;;;;;;19.92;7.70;;;19.40;74.90;;;;;;5116014;27;46520;-69
2023/06/06 09:26:03;;;;;;;20.92;7.00;;;19.40;75.00;;;;;;5122915;27;45419;-69
2023/06/06 09:28:38;;;;;;;14.27;7.07;;;19.30;74.70;;;;;;5119588;27;45319;-71
2023/06/06 09:31:23;;;;;;;19.45;6.18;;;19.40;75.00;;;;;;5123971;27;45383;-70
2023/06/06 09:33:50;;;;;;;20.02;8.00;;;19.40;74.30;;;;;;5113786;27;48284;-70
2023/06/06 09:36:21;;;;;;;19.60;7.75;;;19.50;75.00;;;;;;5124473;27;45308;-70
2023/06/06 09:38:50;;;;;;;13.27;6.53;;;19.50;75.20;;;;;;5121981;27;45473;-69
2023/06/06 09:41:16;;;;;;;15.65;7.00;;;19.50;74.60;;;;;;5116055;27;45284;-70
2023/06/06 09:43:43;;;;;;;21.27;8.20;;;19.50;74.50;;;;;;5113800;27;45393;-70
2023/06/06 09:46:15;;;;;;;11.23;5.45;;;19.50;75.00;;;;;;5118057;27;45290;-70
2023/06/06 09:48:42;;;;;;;11.48;6.05;;;19.50;74.30;;;;;;5124462;27;45269;-69
2023/06/06 09:51:11;;;;;;;13.07;6.95;;;19.50;74.20;;;;;;5123942;27;45318;-69
2023/06/06 09:53:38;;;;;;;12.98;5.97;;;19.60;74.20;;;;;;5115565;27;46366;-70
2023/06/06 09:56:08;;;;;;;17.52;7.28;;;19.60;74.20;;;;;;5117235;27;45694;-70
2023/06/06 09:58:35;;;;;;;15.38;5.22;;;19.70;73.50;;;;;;5114119;27;45492;-71
2023/06/06 10:01:03;;;;;;;15.13;6.57;;;19.70;73.50;;;;;;5117485;27;45576;-70
2023/06/06 10:03:32;;;;;;;16.13;6.60;;;19.70;74.10;;;;;;5124071;27;47300;-70
2023/06/06 10:05:59;;;;;;;17.15;6.63;;;19.60;74.40;;;;;;5114320;27;46084;-71
2023/06/06 10:08:27;;;;;;;20.20;7.30;;;19.80;73.10;;;;;;5115721;27;45287;-70
2023/06/06 10:10:55;;;;;;;15.20;6.40;;;19.90;73.10;;;;;;5118133;27;45532;-69
2023/06/06 10:13:24;;;;;;;12.38;5.53;;;19.80;72.90;;;;;;5112511;27;45363;-70
2023/06/06 10:15:51;;;;;;;15.70;6.55;;;19.90;72.60;;;;;;5117521;27;45281;-72
2023/06/06 10:18:19;;;;;;;11.60;6.07;;;19.80;72.30;;;;;;5109039;27;45355;-71
2023/06/06 10:20:47;;;;;;;17.23;6.57;;;19.90;72.60;;;;;;5121334;27;45451;-72
2023/06/06 10:23:14;;;;;;;18.50;7.07;;;19.90;73.50;;;;;;5118830;27;48532;-71
2023/06/06 10:25:41;;;;;;;16.95;6.65;;;20.00;71.40;;;;;;5111950;27;45811;-70
2023/06/06 10:28:13;;;;;;;18.77;6.35;;;20.30;71.10;;;;;;5117871;27;45394;-71
2023/06/06 10:30:52;;;;;;;10.45;5.90;;;20.60;69.90;;;;;;5116149;27;45411;-70
2023/06/06 10:33:27;;;;;;;11.75;5.57;;;20.30;70.00;;;;;;5111841;27;47902;-71
2023/06/06 10:35:59;;;;;;;14.52;6.40;;;20.10;71.90;;;;;;5122337;27;45299;-71
2023/06/06 10:38:26;;;;;;;13.82;5.93;;;20.20;71.40;;;;;;5114880;27;45362;-71
2023/06/06 10:40:55;;;;;;;10.05;5.05;;;20.20;71.60;;;;;;5117790;27;45378;-71
2023/06/06 10:43:55;;;;;;;13.68;6.38;;;20.20;70.60;;;;;;5117462;27;48572;-70
2023/06/06 10:46:24;;;;;;;15.27;5.07;;;20.20;70.50;;;;;;5110791;27;45373;-72
2023/06/06 10:48:58;;;;;;;13.15;5.65;;;20.40;70.70;;;;;;5114941;27;45333;-71
2023/06/06 10:51:34;;;;;;;17.08;5.68;;;20.40;68.50;;;;;;5120504;27;45614;-71
2023/06/06 10:54:21;;;;;;;12.45;4.72;;;20.40;69.60;;;;;;5112581;27;47083;-70
2023/06/06 10:56:52;;;;;;;12.18;4.70;;;20.30;70.30;;;;;;5112171;27;46050;-70
2023/06/06 10:59:23;;;;;;;18.77;5.25;;;20.10;71.60;;;;;;5108710;27;45354;-68
2023/06/06 11:01:51;;;;;;;9.45;4.88;;;20.20;71.50;;;;;;5119777;27;45304;-71
2023/06/06 11:04:20;;;;;;;10.63;4.75;;;20.40;70.50;;;;;;5119449;27;47667;-70
2023/06/06 11:06:47;;;;;;;10.27;5.03;;;20.20;71.40;;;;;;5120975;27;45323;-70
2023/06/06 11:09:22;;;;;;;17.85;5.55;;;20.40;71.70;;;;;;5121301;27;45224;-72
2023/06/06 11:11:50;;;;;;;12.57;4.90;;;20.50;69.30;;;;;;5119045;27;45410;-71
2023/06/06 11:14:23;;;;;;;11.15;4.68;;;20.40;70.20;;;;;;5115963;27;47336;-72
2023/06/06 11:17:01;;;;;;;8.70;4.40;;;20.10;72.20;;;;;;5114268;27;45454;-71
2023/06/06 11:19:38;;;;;;;8.18;4.00;;;19.90;72.60;;;;;;5115239;27;45548;-72
2023/06/06 11:22:06;;;;;;;10.07;4.65;;;19.70;73.20;;;;;;5118867;27;45560;-71
2023/06/06 11:24:36;;;;;;;8.38;3.90;;;19.90;72.90;;;;;;5122019;27;47501;-71
2023/06/06 11:27:05;;;;;;;7.72;3.88;;;20.10;71.70;;;;;;5116164;27;45397;-70
2023/06/06 11:29:33;;;;;;;10.63;4.13;;;20.00;72.80;;;;;;5112067;27;45495;-70
2023/06/06 11:32:02;;;;;;;9.52;4.43;;;19.90;72.30;;;;;;5123582;27;45449;-70
2023/06/06 11:34:35;;;;;;;6.72;3.90;;;19.90;71.90;;;;;;5121786;27;45505;-73
2023/06/06 11:37:03;;;;;;;13.00;4.40;;;20.00;73.10;;;;;;5120874;27;45430;-72
2023/06/06 11:39:31;;;;;;;8.68;4.18;;;20.20;72.80;;;;;;5114304;27;45515;-71
2023/06/06 11:41:57;;;;;;;13.75;4.00;;;20.20;72.10;;;;;;5114114;27;45451;-70
2023/06/06 11:44:33;;;;;;;12.10;4.00;;;19.80;72.00;;;;;;5114976;27;47482;-70
2023/06/06 11:47:03;;;;;;;8.68;3.50;;;19.80;73.50;;;;;;5121146;27;45338;-70
2023/06/06 11:49:30;;;;;;;11.82;3.92;;;19.80;74.20;;;;;;5107693;27;45340;-72
2023/06/06 11:51:58;;;;;;;6.47;3.45;;;19.80;70.90;;;;;;5111365;27;45581;-71
2023/06/06 11:54:26;;;;;;;16.95;3.58;;;19.90;67.90;;;;;;5109925;27;45365;-71
2023/06/06 11:56:53;;;;;;;9.80;3.47;;;20.10;69.40;;;;;;5120495;27;45331;-72
2023/06/06 11:59:21;;;;;;;9.73;3.25;;;20.10;69.00;;;;;;5121971;27;45456;-70
2023/06/06 12:01:52;;;;;;;7.55;3.38;;;20.10;69.20;;;;;;5117731;27;45429;-69
2023/06/06 12:04:21;;;;;;;6.05;3.08;;;20.10;70.00;;;;;;5122624;27;48436;-67
2023/06/06 12:06:49;;;;;;;9.68;3.63;;;20.00;69.50;;;;;;5118809;27;45547;-69
2023/06/06 12:09:18;;;;;;;9.25;3.80;;;20.10;68.20;;;;;;5123154;27;45422;-69
2023/06/06 12:11:53;;;;;;;11.35;4.35;;;20.10;68.90;;;;;;5123587;27;45571;-66
2023/06/06 12:14:22;;;;;;;9.52;3.53;;;20.50;65.70;;;;;;5120366;27;46601;-69
2023/06/06 12:16:49;;;;;;;12.38;3.53;;;20.60;66.60;;;;;;5122657;27;45298;-70
2023/06/06 12:19:17;;;;;;;8.07;3.03;;;20.40;67.90;;;;;;5117575;27;45286;-70
2023/06/06 12:21:46;;;;;;;8.27;3.22;;;20.40;66.10;;;;;;5125926;27;45250;-70
2023/06/06 12:24:18;;;;;;;6.88;2.90;;;20.30;66.40;;;;;;5118788;27;47564;-70
2023/06/06 12:26:51;;;;;;;9.52;2.97;;;20.10;68.20;;;;;;5118187;27;45403;-70
2023/06/06 12:29:19;;;;;;;12.82;3.63;;;20.00;67.00;;;;;;5116884;27;45472;-70
2023/06/06 12:31:46;;;;;;;10.65;3.05;;;19.70;67.40;;;;;;5117453;27;45517;-72
2023/06/06 12:34:14;;;;;;;7.53;2.88;;;19.80;67.50;;;;;;5118074;27;46602;-70
2023/06/06 12:36:41;;;;;;;9.85;2.75;;;19.70;66.60;;;;;;5121694;27;45371;-71
2023/06/06 12:39:13;;;;;;;5.80;2.53;;;19.70;65.40;;;;;;5125604;27;45283;-70
2023/06/06 12:41:42;;;;;;;7.45;2.95;;;19.80;67.30;;;;;;5115347;27;45386;-70
2023/06/06 12:44:11;;;;;;;4.05;2.25;;;19.80;61.10;;;;;;5120404;27;46977;-70
2023/06/06 12:46:38;;;;;;;7.93;2.15;;;20.00;67.60;;;;;;5123189;27;45339;-71